Time;durP1;ratioP1;P1;durP2;ratioP2;P2;SDS_P1;SDS_P2;PMS_P1;PMS_P2;Temp;Humidity;BMP_temperature;BMP_pressure;BME280_temperature;BME280_humidity;BME280_pressure;Samples;Min_cycle;Max_cycle;Signal;HPM_P1;HPM_P2
2021/12/01 00:01:41;;;;;;;1.25;1.23;;;3.40;99.90;;;;;;5023405;28;20029;-67
2021/12/01 00:04:07;;;;;;;1.55;1.48;;;3.40;99.90;;;;;;5024110;28;20044;-67
2021/12/01 00:06:34;;;;;;;1.30;1.20;;;3.40;99.90;;;;;;5028411;28;20033;-67
2021/12/01 00:09:00;;;;;;;1.48;1.38;;;3.40;99.90;;;;;;5027286;28;20065;-67
2021/12/01 00:11:26;;;;;;;1.02;1.02;;;3.40;99.90;;;;;;5025445;28;20033;-68
2021/12/01 00:13:51;;;;;;;1.55;1.52;;;3.40;99.90;;;;;;5023067;28;20026;-67
2021/12/01 00:16:17;;;;;;;1.40;1.30;;;3.50;99.90;;;;;;5042553;28;20076;-67
2021/12/01 00:18:43;;;;;;;1.02;1.02;;;3.50;99.90;;;;;;5030006;28;20068;-67
2021/12/01 00:21:08;;;;;;;1.27;1.27;;;3.50;99.90;;;;;;5026233;28;20017;-67
2021/12/01 00:23:34;;;;;;;1.50;1.40;;;3.60;99.90;;;;;;5027682;28;20080;-67
2021/12/01 00:26:00;;;;;;;1.17;1.17;;;3.50;99.90;;;;;;5027853;28;20041;-67
2021/12/01 00:28:26;;;;;;;1.40;1.30;;;3.60;99.90;;;;;;5044933;28;20889;-67
2021/12/01 00:30:52;;;;;;;1.20;1.10;;;3.60;99.90;;;;;;5035156;28;23560;-67
2021/12/01 00:33:22;;;;;;;2.05;1.85;;;3.60;99.90;;;;;;5028483;28;20029;-67
2021/12/01 00:35:53;;;;;;;1.20;1.20;;;3.60;99.90;;;;;;5053306;28;20043;-67
2021/12/01 00:38:19;;;;;;;1.30;1.20;;;3.60;99.90;;;;;;5048446;28;20576;-67
2021/12/01 00:40:45;;;;;;;1.13;1.10;;;3.70;99.90;;;;;;5046119;28;20025;-67
2021/12/01 00:43:16;;;;;;;1.45;1.35;;;3.70;99.90;;;;;;5047400;28;20029;-67
2021/12/01 00:45:50;;;;;;;1.52;1.42;;;3.70;99.90;;;;;;5032286;28;20033;-67
2021/12/01 00:48:17;;;;;;;1.90;1.80;;;3.70;99.90;;;;;;5024363;28;20029;-67
2021/12/01 00:50:44;;;;;;;1.60;1.50;;;3.70;99.90;;;;;;5046631;28;20084;-67
2021/12/01 00:53:11;;;;;;;1.63;1.52;;;3.70;99.90;;;;;;5052748;28;20078;-67
2021/12/01 00:55:37;;;;;;;1.33;1.33;;;3.70;99.90;;;;;;5045036;28;20026;-67
2021/12/01 00:58:03;;;;;;;1.35;1.25;;;3.80;99.90;;;;;;5044933;28;20025;-67
2021/12/01 01:00:30;;;;;;;1.60;1.50;;;3.70;99.90;;;;;;5049249;28;20059;-67
2021/12/01 01:02:56;;;;;;;1.40;1.30;;;3.80;99.90;;;;;;5045549;28;20036;-67
2021/12/01 01:05:22;;;;;;;1.60;1.45;;;3.80;99.90;;;;;;5026111;28;20036;-67
2021/12/01 01:07:49;;;;;;;1.58;1.50;;;3.80;99.90;;;;;;5041471;28;20029;-67
2021/12/01 01:18:31;;;;;;;1.70;1.60;;;3.80;99.90;;;;;;5042368;28;20043;-67
2021/12/01 01:20:57;;;;;;;1.00;1.00;;;3.90;99.90;;;;;;5044255;28;20398;-67
2021/12/01 01:23:24;;;;;;;1.67;1.58;;;3.90;99.90;;;;;;5049920;28;20242;-67
2021/12/01 01:25:50;;;;;;;1.48;1.38;;;3.90;99.90;;;;;;5036192;28;20508;-66
2021/12/01 01:28:15;;;;;;;1.42;1.33;;;3.90;99.90;;;;;;5049140;28;20037;-67
2021/12/01 01:30:41;;;;;;;1.30;1.20;;;4.00;99.90;;;;;;5039212;28;20053;-67
2021/12/01 01:33:07;;;;;;;1.40;1.30;;;4.00;99.90;;;;;;5046162;28;20484;-67
2021/12/01 01:35:32;;;;;;;1.30;1.17;;;4.00;99.90;;;;;;5054870;28;20020;-67
2021/12/01 01:37:58;;;;;;;1.33;1.23;;;4.00;99.90;;;;;;5031719;28;20036;-67
2021/12/01 01:40:24;;;;;;;2.10;1.20;;;4.00;99.90;;;;;;5030425;28;20143;-67
2021/12/01 01:42:49;;;;;;;1.17;1.17;;;4.00;99.90;;;;;;5048266;28;20103;-67
2021/12/01 01:45:17;;;;;;;1.23;1.13;;;4.10;99.90;;;;;;5048987;28;20474;-67
2021/12/01 01:48:03;;;;;;;1.20;1.10;;;4.10;99.90;;;;;;5035675;28;20055;-67
2021/12/01 01:50:37;;;;;;;1.20;1.10;;;4.10;99.90;;;;;;5049907;28;22231;-67
2021/12/01 01:53:15;;;;;;;1.40;1.30;;;4.10;99.90;;;;;;5048343;28;20029;-67
2021/12/01 01:55:45;;;;;;;1.52;1.42;;;4.10;99.90;;;;;;5052730;28;20583;-67
2021/12/01 01:58:12;;;;;;;1.10;1.10;;;4.10;99.90;;;;;;5031805;28;20699;-67
2021/12/01 02:01:06;;;;;;;0.85;0.85;;;4.10;99.90;;;;;;5048419;28;20030;-67
2021/12/01 02:03:25;;;;;;;1.23;1.10;;;4.10;99.90;;;;;;5045279;28;20075;-67
2021/12/01 02:05:52;;;;;;;1.05;1.05;;;4.10;99.90;;;;;;5051735;28;20104;-68
2021/12/01 02:08:29;;;;;;;1.25;1.00;;;4.10;99.90;;;;;;5054459;28;20689;-67
2021/12/01 02:10:56;;;;;;;1.10;1.10;;;4.20;99.90;;;;;;5051195;28;20123;-67
2021/12/01 02:13:22;;;;;;;1.20;1.20;;;4.20;99.90;;;;;;5047830;28;20043;-67
2021/12/01 02:15:50;;;;;;;0.93;0.93;;;4.10;99.90;;;;;;5033858;28;20658;-67
2021/12/01 02:18:16;;;;;;;1.20;1.20;;;4.20;99.90;;;;;;5054222;28;20093;-67
2021/12/01 02:21:06;;;;;;;1.00;1.00;;;4.20;99.90;;;;;;5048867;28;20055;-67
2021/12/01 02:23:33;;;;;;;1.38;1.27;;;4.20;99.90;;;;;;5050964;28;20016;-67
2021/12/01 02:25:59;;;;;;;0.93;0.90;;;4.10;99.90;;;;;;5050900;28;20512;-67
2021/12/01 02:28:25;;;;;;;1.05;1.05;;;4.20;99.90;;;;;;5050771;28;20047;-67
2021/12/01 02:30:50;;;;;;;0.95;0.95;;;4.20;99.90;;;;;;5047934;28;20397;-67
2021/12/01 02:33:16;;;;;;;0.90;0.90;;;4.20;99.90;;;;;;5050546;28;20114;-67
2021/12/01 02:35:42;;;;;;;1.30;1.25;;;4.20;99.90;;;;;;5037674;28;20036;-67
2021/12/01 02:38:07;;;;;;;1.10;1.10;;;4.20;99.90;;;;;;5046763;28;20032;-67
2021/12/01 02:40:33;;;;;;;1.25;1.17;;;4.20;99.90;;;;;;5034641;28;20033;-67
2021/12/01 02:42:59;;;;;;;1.25;0.93;;;4.20;99.90;;;;;;5047772;28;20024;-67
2021/12/01 02:45:25;;;;;;;0.90;0.90;;;4.20;99.90;;;;;;5051879;28;20408;-67
2021/12/01 02:47:51;;;;;;;1.42;1.33;;;4.20;99.90;;;;;;5046174;28;20100;-67
2021/12/01 02:50:17;;;;;;;1.10;1.00;;;4.20;99.90;;;;;;5049670;28;20036;-67
2021/12/01 02:52:42;;;;;;;1.05;1.00;;;4.20;99.90;;;;;;5025174;28;20109;-68
2021/12/01 02:55:10;;;;;;;0.95;0.93;;;4.20;99.90;;;;;;5044632;28;20759;-67
2021/12/01 02:57:48;;;;;;;1.10;1.00;;;4.20;99.90;;;;;;5039537;28;20040;-67
2021/12/01 03:00:15;;;;;;;1.40;1.30;;;4.20;99.90;;;;;;5030762;28;20050;-68
2021/12/01 03:02:41;;;;;;;0.85;0.85;;;4.20;99.90;;;;;;5029689;28;20039;-67
2021/12/01 03:05:08;;;;;;;1.10;1.10;;;4.20;99.90;;;;;;5048187;28;20504;-67
2021/12/01 03:07:35;;;;;;;1.40;1.30;;;4.30;99.90;;;;;;5046878;28;20385;-67
2021/12/01 03:10:01;;;;;;;1.15;1.08;;;4.20;99.90;;;;;;5032589;28;20032;-69
2021/12/01 03:12:32;;;;;;;1.00;1.00;;;4.30;99.90;;;;;;5046034;28;20512;-67
2021/12/01 03:14:58;;;;;;;1.00;1.00;;;4.30;99.90;;;;;;5055061;28;20116;-67
2021/12/01 03:17:28;;;;;;;1.20;1.10;;;4.30;99.90;;;;;;5047693;28;20033;-67
2021/12/01 03:19:54;;;;;;;0.88;0.88;;;4.20;99.90;;;;;;5049074;28;20091;-67
2021/12/01 03:22:20;;;;;;;1.40;1.30;;;4.20;99.90;;;;;;5040345;28;20028;-67
2021/12/01 03:24:46;;;;;;;1.30;1.20;;;4.30;99.90;;;;;;5026721;28;20480;-67
2021/12/01 03:27:12;;;;;;;1.00;1.00;;;4.20;99.90;;;;;;5053440;28;20103;-67
2021/12/01 03:29:37;;;;;;;1.17;1.17;;;4.20;99.90;;;;;;5046169;28;20070;-66
2021/12/01 03:32:03;;;;;;;1.27;1.17;;;4.20;99.90;;;;;;5026997;28;20500;-67
2021/12/01 03:34:29;;;;;;;1.55;1.45;;;4.30;99.90;;;;;;5047186;28;20033;-66
2021/12/01 03:36:56;;;;;;;1.25;1.17;;;4.30;99.90;;;;;;5047676;28;20053;-66
2021/12/01 03:39:23;;;;;;;2.63;1.50;;;4.30;99.90;;;;;;5043269;28;20017;-66
2021/12/01 03:41:49;;;;;;;1.38;1.27;;;4.30;99.90;;;;;;5049530;28;20025;-67
2021/12/01 03:44:14;;;;;;;1.23;1.13;;;4.30;99.90;;;;;;5049614;28;20040;-66
2021/12/01 03:46:40;;;;;;;1.92;1.55;;;4.30;99.90;;;;;;5052645;28;20065;-67
2021/12/01 03:49:06;;;;;;;1.85;1.60;;;4.30;99.90;;;;;;5049567;28;20024;-66
2021/12/01 03:51:32;;;;;;;1.40;1.30;;;4.30;99.90;;;;;;5049007;28;20040;-67
2021/12/01 03:53:58;;;;;;;1.00;1.00;;;4.30;99.90;;;;;;5023888;28;20072;-66
2021/12/01 03:56:23;;;;;;;1.60;1.50;;;4.30;99.90;;;;;;5032300;28;20683;-67
2021/12/01 03:58:49;;;;;;;1.42;1.40;;;4.30;99.90;;;;;;5027213;28;20028;-66
2021/12/01 04:01:14;;;;;;;1.23;1.23;;;4.30;99.90;;;;;;5046782;28;20248;-67
2021/12/01 04:03:40;;;;;;;1.45;1.35;;;4.30;99.90;;;;;;5026667;28;20056;-68
2021/12/01 04:06:06;;;;;;;2.10;1.30;;;4.30;99.90;;;;;;5048735;28;20120;-67
2021/12/01 04:08:33;;;;;;;1.45;1.30;;;4.30;99.90;;;;;;5040811;28;20115;-67
2021/12/01 04:10:58;;;;;;;1.50;1.40;;;4.30;99.90;;;;;;5043981;28;20083;-68
2021/12/01 04:13:24;;;;;;;1.33;1.23;;;4.30;99.90;;;;;;5047355;28;20021;-67
2021/12/01 04:15:49;;;;;;;1.42;1.38;;;4.30;99.90;;;;;;5033102;28;20020;-67
2021/12/01 04:18:15;;;;;;;1.63;1.52;;;4.30;99.90;;;;;;5025956;28;20063;-67
2021/12/01 04:20:41;;;;;;;1.80;1.70;;;4.30;99.90;;;;;;5043981;28;20024;-67
2021/12/01 04:23:07;;;;;;;1.38;1.27;;;4.30;99.90;;;;;;5027134;28;20079;-67
2021/12/01 04:25:34;;;;;;;1.45;1.35;;;4.30;99.90;;;;;;5045978;28;20057;-67
2021/12/01 04:28:00;;;;;;;1.58;1.50;;;4.40;99.90;;;;;;5041078;28;20394;-67
2021/12/01 04:30:26;;;;;;;1.45;1.30;;;4.30;99.90;;;;;;5031980;28;20056;-67
2021/12/01 04:32:53;;;;;;;1.42;1.23;;;4.40;99.90;;;;;;5043598;28;20026;-67
2021/12/01 04:35:20;;;;;;;1.63;1.52;;;4.40;99.90;;;;;;5043333;28;20048;-67
2021/12/01 04:37:48;;;;;;;1.70;1.60;;;4.40;99.90;;;;;;5045843;28;20032;-67
2021/12/01 04:40:14;;;;;;;1.60;1.50;;;4.40;99.90;;;;;;5049909;28;20029;-68
2021/12/01 04:42:40;;;;;;;1.45;1.35;;;4.40;99.90;;;;;;5044025;28;20143;-67
2021/12/01 04:45:13;;;;;;;1.50;1.40;;;4.40;99.90;;;;;;5044892;28;20128;-67
2021/12/01 04:47:41;;;;;;;2.00;1.60;;;4.40;99.90;;;;;;5027116;28;20036;-67
2021/12/01 04:50:07;;;;;;;2.20;2.00;;;4.40;99.90;;;;;;5028697;28;20205;-67
2021/12/01 04:52:33;;;;;;;1.40;1.30;;;4.40;99.90;;;;;;5042316;28;20473;-67
2021/12/01 04:54:59;;;;;;;1.50;1.40;;;4.40;99.90;;;;;;5028965;28;20105;-66
2021/12/01 04:57:24;;;;;;;1.50;1.40;;;4.50;99.90;;;;;;5037328;28;20071;-67
2021/12/01 04:59:50;;;;;;;2.38;1.52;;;4.50;99.90;;;;;;5046291;28;20021;-67
2021/12/01 05:02:16;;;;;;;1.50;1.40;;;4.50;99.90;;;;;;5041323;28;20059;-67
2021/12/01 05:04:42;;;;;;;1.75;1.42;;;4.50;99.90;;;;;;5033027;28;20041;-67
2021/12/01 05:07:09;;;;;;;1.67;1.58;;;4.50;99.90;;;;;;5016464;28;20075;-67
2021/12/01 05:09:35;;;;;;;1.95;1.77;;;4.50;99.90;;;;;;5028562;28;20029;-67
2021/12/01 05:12:01;;;;;;;1.60;1.50;;;4.40;99.90;;;;;;5046313;28;20040;-66
2021/12/01 05:14:27;;;;;;;1.80;1.70;;;4.40;99.90;;;;;;5038259;28;20116;-67
2021/12/01 05:16:53;;;;;;;2.28;1.90;;;4.50;99.90;;;;;;5041614;28;20061;-67
2021/12/01 05:19:19;;;;;;;1.60;1.50;;;4.50;99.90;;;;;;5029795;28;20127;-67
2021/12/01 05:21:45;;;;;;;2.65;1.80;;;4.40;99.90;;;;;;5042933;28;20119;-67
2021/12/01 05:24:11;;;;;;;1.63;1.52;;;4.40;99.90;;;;;;5039600;28;20119;-67
2021/12/01 05:26:37;;;;;;;2.65;2.00;;;4.50;99.90;;;;;;5044486;28;21000;-67
2021/12/01 05:29:03;;;;;;;2.40;1.88;;;4.40;99.90;;;;;;5045760;28;20095;-67
2021/12/01 05:31:29;;;;;;;3.15;1.67;;;4.40;99.90;;;;;;5045428;28;20115;-67
2021/12/01 05:33:55;;;;;;;3.10;1.90;;;4.40;99.90;;;;;;5047420;28;20036;-67
2021/12/01 05:36:21;;;;;;;2.97;2.03;;;4.40;99.90;;;;;;5041322;28;20110;-67
2021/12/01 05:38:46;;;;;;;2.65;1.98;;;4.40;99.90;;;;;;5029024;28;20090;-68
2021/12/01 05:41:12;;;;;;;1.80;1.60;;;4.40;99.90;;;;;;5044379;28;20072;-67
2021/12/01 05:43:38;;;;;;;1.92;1.83;;;4.50;99.90;;;;;;5034042;28;20418;-67
2021/12/01 05:46:04;;;;;;;2.28;1.92;;;4.50;99.90;;;;;;5044911;28;20135;-68
2021/12/01 05:48:29;;;;;;;2.22;1.95;;;4.50;99.90;;;;;;5009896;28;20048;-67
2021/12/01 05:50:55;;;;;;;1.98;1.88;;;4.50;99.90;;;;;;5045086;28;20040;-67
2021/12/01 05:53:20;;;;;;;2.35;1.90;;;4.50;99.90;;;;;;5025254;28;20024;-67
2021/12/01 05:55:46;;;;;;;2.05;1.90;;;4.50;99.90;;;;;;5037331;28;20021;-68
2021/12/01 05:58:12;;;;;;;3.03;2.13;;;4.50;99.90;;;;;;5046186;28;20024;-67
2021/12/01 06:00:37;;;;;;;2.20;2.00;;;4.50;99.90;;;;;;5026136;28;20061;-67
2021/12/01 06:03:03;;;;;;;2.75;2.15;;;4.50;99.90;;;;;;5047936;28;21970;-67
2021/12/01 06:05:29;;;;;;;3.53;2.15;;;4.50;99.90;;;;;;5044983;28;20037;-67
2021/12/01 06:07:55;;;;;;;2.65;2.45;;;4.50;99.90;;;;;;5043590;28;20098;-67
2021/12/01 06:10:20;;;;;;;2.90;1.98;;;4.50;99.90;;;;;;5052481;28;20119;-68
2021/12/01 06:12:46;;;;;;;2.25;2.03;;;4.50;99.90;;;;;;5047409;28;20104;-67
2021/12/01 06:15:16;;;;;;;2.08;1.70;;;4.40;99.90;;;;;;5050035;28;20055;-67
2021/12/01 06:17:42;;;;;;;1.92;1.77;;;4.50;99.90;;;;;;5017974;28;20025;-67
2021/12/01 06:20:09;;;;;;;2.15;1.92;;;4.50;99.90;;;;;;5041562;28;20040;-67
2021/12/01 06:22:34;;;;;;;3.03;2.13;;;4.50;99.90;;;;;;5052996;28;20559;-67
2021/12/01 06:25:00;;;;;;;1.90;1.80;;;4.40;99.90;;;;;;5050430;28;20016;-67
2021/12/01 06:27:26;;;;;;;2.00;1.80;;;4.50;99.90;;;;;;5031769;28;20086;-68
2021/12/01 06:29:52;;;;;;;3.10;2.10;;;4.50;99.90;;;;;;5055959;28;20037;-67
2021/12/01 06:32:18;;;;;;;2.60;1.73;;;4.40;99.90;;;;;;5047809;28;20036;-68
2021/12/01 06:34:44;;;;;;;2.40;1.83;;;4.50;99.90;;;;;;5052739;28;20051;-67
2021/12/01 06:37:10;;;;;;;1.77;1.67;;;4.50;99.90;;;;;;5038149;28;20041;-67
2021/12/01 06:39:35;;;;;;;1.60;1.50;;;4.50;99.90;;;;;;5049274;28;20033;-67
2021/12/01 06:42:01;;;;;;;2.53;2.35;;;4.50;99.90;;;;;;5053967;28;20137;-67
2021/12/01 06:44:30;;;;;;;2.35;2.05;;;4.50;99.90;;;;;;5026910;28;20029;-67
2021/12/01 06:46:56;;;;;;;2.03;1.40;;;4.50;99.90;;;;;;5042712;28;20029;-67
2021/12/01 06:49:22;;;;;;;1.65;1.55;;;4.50;99.90;;;;;;5040512;28;20490;-67
2021/12/01 06:51:47;;;;;;;1.70;1.42;;;4.60;99.90;;;;;;5037141;28;20036;-67
2021/12/01 06:54:13;;;;;;;1.30;1.20;;;4.50;99.90;;;;;;5045034;28;20033;-67
2021/12/01 06:56:39;;;;;;;1.65;1.55;;;4.50;99.90;;;;;;5024640;28;20032;-68
2021/12/01 06:59:05;;;;;;;1.55;1.45;;;4.60;99.90;;;;;;5036728;28;20492;-68
2021/12/01 07:01:30;;;;;;;2.15;1.38;;;4.50;99.90;;;;;;5048700;28;20459;-67
2021/12/01 07:03:56;;;;;;;1.70;1.35;;;4.50;99.90;;;;;;5050907;28;20028;-67
2021/12/01 07:06:21;;;;;;;1.80;1.20;;;4.60;99.90;;;;;;5043694;28;20536;-67
2021/12/01 07:08:47;;;;;;;1.75;1.65;;;4.60;99.90;;;;;;5046462;28;20144;-67
2021/12/01 07:11:13;;;;;;;1.70;1.60;;;4.60;99.90;;;;;;5054215;28;20028;-67
2021/12/01 07:13:39;;;;;;;1.85;1.55;;;4.60;99.90;;;;;;5031235;28;20037;-67
2021/12/01 07:16:04;;;;;;;1.20;1.20;;;4.60;99.90;;;;;;5052570;28;20028;-67
2021/12/01 07:18:30;;;;;;;1.75;1.25;;;4.50;99.90;;;;;;5029296;28;20106;-68
2021/12/01 07:20:56;;;;;;;1.23;1.15;;;4.50;99.90;;;;;;5043631;28;20059;-67
2021/12/01 07:23:23;;;;;;;1.20;1.10;;;4.50;99.90;;;;;;5035356;28;20033;-67
2021/12/01 07:25:49;;;;;;;1.40;1.30;;;4.50;99.90;;;;;;5052560;28;20021;-68
2021/12/01 07:28:14;;;;;;;3.15;1.52;;;4.50;99.90;;;;;;5042220;28;20055;-67
2021/12/01 07:30:40;;;;;;;1.10;1.10;;;4.50;99.90;;;;;;5035927;28;20128;-68
2021/12/01 07:33:07;;;;;;;1.00;1.00;;;4.50;99.90;;;;;;5031483;28;20056;-67
2021/12/01 07:35:32;;;;;;;3.28;1.25;;;4.50;99.90;;;;;;5033372;28;20678;-66
2021/12/01 07:37:58;;;;;;;3.28;1.45;;;4.50;99.90;;;;;;5048722;28;20036;-67
2021/12/01 07:40:24;;;;;;;0.90;0.90;;;4.60;99.90;;;;;;5031090;28;20450;-68
2021/12/01 07:42:51;;;;;;;1.23;1.00;;;4.60;99.90;;;;;;5032995;28;20057;-67
2021/12/01 07:45:17;;;;;;;1.48;1.38;;;4.60;99.90;;;;;;5045067;28;20110;-67
2021/12/01 07:47:42;;;;;;;1.23;1.20;;;4.60;99.90;;;;;;5032584;28;20514;-67
2021/12/01 07:50:09;;;;;;;1.40;1.30;;;4.60;99.90;;;;;;5031636;28;20031;-67
2021/12/01 07:52:35;;;;;;;1.15;1.15;;;4.60;99.90;;;;;;5041284;28;20025;-67
2021/12/01 07:55:02;;;;;;;1.23;1.15;;;4.70;99.90;;;;;;5050594;28;20025;-67
2021/12/01 07:57:28;;;;;;;1.48;1.38;;;4.70;99.90;;;;;;5035097;28;20517;-67
2021/12/01 07:59:53;;;;;;;0.80;0.80;;;4.70;99.90;;;;;;5032254;28;20115;-67
2021/12/01 08:02:19;;;;;;;1.10;1.10;;;4.70;99.90;;;;;;5052901;28;20047;-67
2021/12/01 08:04:44;;;;;;;1.73;0.98;;;4.70;99.90;;;;;;5043121;28;20033;-67
2021/12/01 08:07:10;;;;;;;0.80;0.80;;;4.70;99.90;;;;;;5032424;28;20482;-67
2021/12/01 08:09:36;;;;;;;0.70;0.70;;;4.70;99.90;;;;;;5039779;28;20028;-67
2021/12/01 08:12:01;;;;;;;1.00;0.90;;;4.70;99.90;;;;;;5050308;28;20107;-67
2021/12/01 08:14:27;;;;;;;1.05;1.05;;;4.70;99.90;;;;;;5023248;28;20029;-67
2021/12/01 08:16:54;;;;;;;1.27;1.17;;;4.70;99.90;;;;;;5037719;28;20032;-68
2021/12/01 08:19:21;;;;;;;0.95;0.95;;;4.70;99.90;;;;;;5046041;28;20405;-67
2021/12/01 08:21:49;;;;;;;3.22;1.23;;;4.70;99.90;;;;;;5051181;28;20025;-68
2021/12/01 08:24:15;;;;;;;1.33;1.05;;;4.70;99.90;;;;;;5053264;28;20032;-67
2021/12/01 08:26:43;;;;;;;0.90;0.90;;;4.80;99.90;;;;;;5028436;28;21528;-67
2021/12/01 08:29:11;;;;;;;1.05;1.05;;;4.80;99.90;;;;;;5047040;28;20033;-67
2021/12/01 08:31:37;;;;;;;1.40;1.15;;;4.80;99.90;;;;;;5026303;28;20502;-67
2021/12/01 08:34:03;;;;;;;1.33;1.23;;;4.80;99.90;;;;;;5044110;28;20032;-68
2021/12/01 08:36:28;;;;;;;1.20;1.20;;;4.80;99.90;;;;;;5043241;28;20028;-67
2021/12/01 08:38:54;;;;;;;1.13;1.02;;;4.70;99.90;;;;;;5048650;28;20037;-68
2021/12/01 08:41:20;;;;;;;1.30;1.20;;;4.80;99.90;;;;;;5038609;28;20035;-68
2021/12/01 08:43:46;;;;;;;1.52;1.17;;;4.70;99.90;;;;;;5052409;28;20057;-67
2021/12/01 08:46:12;;;;;;;2.28;1.40;;;4.80;99.90;;;;;;5037157;28;20041;-67
2021/12/01 08:48:39;;;;;;;1.30;1.20;;;4.80;99.90;;;;;;5033096;28;20079;-67
2021/12/01 08:51:06;;;;;;;1.10;1.10;;;4.80;99.90;;;;;;5044529;28;20067;-68
2021/12/01 08:53:34;;;;;;;1.02;1.02;;;4.80;99.90;;;;;;5041320;28;20024;-68
2021/12/01 08:56:00;;;;;;;1.38;1.25;;;4.80;99.90;;;;;;5050609;28;20017;-68
2021/12/01 08:58:27;;;;;;;0.98;0.98;;;4.90;99.90;;;;;;5032958;28;20050;-67
2021/12/01 09:00:55;;;;;;;2.28;1.00;;;4.90;99.90;;;;;;5049901;28;20482;-67
2021/12/01 09:03:21;;;;;;;1.50;1.40;;;4.90;99.90;;;;;;5041880;28;20016;-67
2021/12/01 09:05:48;;;;;;;0.90;0.90;;;5.00;99.90;;;;;;5042913;28;20755;-68
2021/12/01 09:08:15;;;;;;;1.20;1.17;;;5.00;99.90;;;;;;5028516;28;20053;-68
2021/12/01 09:10:41;;;;;;;1.17;1.15;;;5.00;99.90;;;;;;5052235;28;20021;-67
2021/12/01 09:13:07;;;;;;;1.85;1.00;;;5.10;99.90;;;;;;5028103;28;20045;-68
2021/12/01 09:15:33;;;;;;;1.23;1.13;;;5.20;99.90;;;;;;5044640;28;20354;-67
2021/12/01 09:18:00;;;;;;;1.42;1.00;;;5.30;99.90;;;;;;5034618;28;20024;-67
2021/12/01 09:20:26;;;;;;;1.30;1.10;;;5.30;99.90;;;;;;5035354;28;20031;-67
2021/12/01 09:22:54;;;;;;;0.95;0.95;;;5.30;99.90;;;;;;5046251;28;20539;-68
2021/12/01 09:25:20;;;;;;;1.55;1.10;;;5.40;99.90;;;;;;5033607;28;20112;-67
2021/12/01 09:27:46;;;;;;;0.85;0.85;;;5.60;99.90;;;;;;5033232;28;20108;-68
2021/12/01 09:30:15;;;;;;;1.30;1.10;;;5.60;99.90;;;;;;5046680;28;20049;-67
2021/12/01 09:32:41;;;;;;;1.25;1.20;;;5.70;99.90;;;;;;5045620;28;20048;-67
2021/12/01 09:35:09;;;;;;;1.35;1.10;;;5.70;99.90;;;;;;5046928;28;20523;-68
2021/12/01 09:37:35;;;;;;;1.20;1.20;;;5.80;99.90;;;;;;5047954;28;20033;-68
2021/12/01 09:40:04;;;;;;;1.00;1.00;;;5.80;99.90;;;;;;5049680;28;20026;-68
2021/12/01 09:42:30;;;;;;;1.30;1.02;;;5.70;99.90;;;;;;5047751;28;20071;-68
2021/12/01 09:44:57;;;;;;;1.00;1.00;;;5.70;99.90;;;;;;5055015;28;20024;-68
2021/12/01 09:47:24;;;;;;;1.10;1.05;;;5.70;99.90;;;;;;5036715;28;20398;-67
2021/12/01 09:49:51;;;;;;;1.02;0.95;;;5.70;99.90;;;;;;5042410;28;20620;-67
2021/12/01 09:52:18;;;;;;;1.17;1.08;;;5.60;99.90;;;;;;5036799;28;20087;-67
2021/12/01 09:54:44;;;;;;;1.00;1.00;;;5.60;99.90;;;;;;5042726;28;20025;-68
2021/12/01 09:57:13;;;;;;;0.80;0.80;;;5.70;99.90;;;;;;5031491;28;20021;-67
2021/12/01 09:59:40;;;;;;;0.98;0.95;;;5.70;99.90;;;;;;5046143;28;20024;-67
2021/12/01 10:02:07;;;;;;;1.45;1.15;;;5.70;99.90;;;;;;5036996;28;20463;-67
2021/12/01 10:04:32;;;;;;;1.13;1.02;;;5.70;99.90;;;;;;5044049;28;20037;-68
2021/12/01 10:07:21;;;;;;;0.80;0.80;;;5.70;99.90;;;;;;5029652;28;20029;-68
2021/12/01 10:09:57;;;;;;;0.77;0.77;;;5.90;99.90;;;;;;5026230;28;20033;-67
2021/12/01 10:12:24;;;;;;;0.75;0.75;;;5.90;99.90;;;;;;5035389;28;20516;-68
2021/12/01 10:14:53;;;;;;;2.25;1.10;;;6.00;99.90;;;;;;5045416;28;20104;-67
2021/12/01 10:17:35;;;;;;;0.65;0.65;;;6.10;99.90;;;;;;5052136;28;20119;-68
2021/12/01 10:20:16;;;;;;;0.80;0.80;;;6.10;99.90;;;;;;5053297;28;20509;-68
2021/12/01 10:23:05;;;;;;;1.25;1.08;;;6.20;99.90;;;;;;5033028;28;20056;-68
2021/12/01 10:25:31;;;;;;;0.70;0.70;;;6.20;99.90;;;;;;5039702;28;20029;-67
2021/12/01 10:27:56;;;;;;;0.98;0.90;;;6.10;99.90;;;;;;5050046;28;20040;-68
2021/12/01 10:30:44;;;;;;;0.70;0.70;;;6.20;99.90;;;;;;5053275;28;20050;-68
2021/12/01 10:33:16;;;;;;;1.00;1.00;;;6.20;99.90;;;;;;5052088;28;20081;-68
2021/12/01 10:35:42;;;;;;;3.20;1.10;;;6.30;99.90;;;;;;5042946;28;20037;-67
2021/12/01 10:38:09;;;;;;;1.08;0.90;;;6.20;99.90;;;;;;5047351;28;20032;-68
2021/12/01 10:40:37;;;;;;;1.20;1.08;;;6.20;99.90;;;;;;5049013;28;20044;-68
2021/12/01 10:43:10;;;;;;;1.23;1.20;;;6.20;99.90;;;;;;5049667;28;20418;-68
2021/12/01 10:45:38;;;;;;;0.77;0.77;;;6.20;99.90;;;;;;5030544;28;20021;-68
2021/12/01 10:48:06;;;;;;;0.98;0.98;;;6.20;99.90;;;;;;5038650;28;20374;-68
2021/12/01 10:50:34;;;;;;;0.95;0.93;;;6.30;99.90;;;;;;5042922;28;20520;-67
2021/12/01 10:53:17;;;;;;;0.90;0.90;;;6.40;99.90;;;;;;5037548;28;20028;-67
2021/12/01 10:55:49;;;;;;;1.02;1.00;;;6.40;99.90;;;;;;5043581;28;20025;-68
2021/12/01 10:58:15;;;;;;;1.13;0.90;;;6.50;99.90;;;;;;5031972;28;20112;-67
2021/12/01 11:00:45;;;;;;;0.60;0.60;;;6.60;99.90;;;;;;5046117;28;20021;-68
2021/12/01 11:03:20;;;;;;;1.00;1.00;;;6.60;99.90;;;;;;5039166;28;20100;-67
2021/12/01 11:05:50;;;;;;;1.15;1.08;;;6.60;99.90;;;;;;5033867;28;20120;-67
2021/12/01 11:08:29;;;;;;;0.90;0.90;;;6.60;99.90;;;;;;5039222;28;20037;-68
2021/12/01 11:10:56;;;;;;;0.80;0.80;;;6.70;99.90;;;;;;5041607;28;20068;-68
2021/12/01 11:13:24;;;;;;;0.80;0.80;;;6.80;99.90;;;;;;5024390;28;20774;-68
2021/12/01 11:15:54;;;;;;;1.02;1.00;;;6.80;99.90;;;;;;5033274;28;20030;-67
2021/12/01 11:18:26;;;;;;;0.98;0.90;;;6.80;99.90;;;;;;5029047;28;20040;-68
2021/12/01 11:20:53;;;;;;;1.20;1.10;;;6.90;99.90;;;;;;5048000;28;20012;-68
2021/12/01 11:23:23;;;;;;;0.82;0.80;;;6.90;99.90;;;;;;5033999;28;20025;-68
2021/12/01 11:25:51;;;;;;;0.85;0.80;;;6.90;99.90;;;;;;5029226;28;20034;-67
2021/12/01 11:28:19;;;;;;;0.80;0.80;;;6.90;99.90;;;;;;5046252;28;20075;-67
2021/12/01 11:30:48;;;;;;;0.77;0.77;;;7.00;99.90;;;;;;5038118;28;20059;-68
2021/12/01 11:33:17;;;;;;;1.00;1.00;;;6.90;99.90;;;;;;5040079;28;20036;-67
2021/12/01 11:35:44;;;;;;;0.90;0.90;;;7.00;99.90;;;;;;5047838;28;20028;-68
2021/12/01 11:38:11;;;;;;;1.03;1.00;;;7.00;99.90;;;;;;5052050;28;20090;-68
2021/12/01 11:40:37;;;;;;;0.70;0.70;;;7.00;99.90;;;;;;5041405;28;22423;-68
2021/12/01 11:43:04;;;;;;;0.90;0.90;;;7.10;99.90;;;;;;5046545;28;20727;-68
2021/12/01 11:45:30;;;;;;;1.02;1.02;;;7.10;99.90;;;;;;5041116;28;20057;-68
2021/12/01 11:47:55;;;;;;;0.93;0.93;;;7.10;99.90;;;;;;5024432;28;20064;-68
2021/12/01 11:50:32;;;;;;;2.20;1.30;;;7.10;99.90;;;;;;5049993;28;20052;-67
2021/12/01 11:53:36;;;;;;;1.30;1.20;;;7.10;99.90;;;;;;5043652;28;20025;-67
2021/12/01 11:56:05;;;;;;;1.30;1.20;;;7.10;99.90;;;;;;5018493;28;20076;-67
2021/12/01 11:58:52;;;;;;;1.08;1.08;;;7.10;99.90;;;;;;5039669;28;20025;-68
2021/12/01 12:01:20;;;;;;;1.20;1.10;;;7.10;99.90;;;;;;5043989;28;20443;-68
2021/12/01 12:03:59;;;;;;;;;;;7.10;99.90;;;;;;5049377;28;20051;-67
2021/12/01 12:06:27;;;;;;;1.00;1.00;;;7.10;99.90;;;;;;5036722;28;20008;-67
2021/12/01 12:08:59;;;;;;;1.20;1.10;;;7.10;99.90;;;;;;5044651;28;20017;-67
2021/12/01 12:11:48;;;;;;;1.30;1.20;;;7.10;99.90;;;;;;5039612;28;20037;-68
2021/12/01 12:14:19;;;;;;;1.77;1.30;;;7.20;99.90;;;;;;5047518;28;20017;-68
2021/12/01 12:17:12;;;;;;;1.00;1.00;;;7.20;99.90;;;;;;5041676;28;20028;-68
2021/12/01 12:19:44;;;;;;;1.20;1.20;;;7.20;99.90;;;;;;5028098;28;20481;-67
2021/12/01 12:22:11;;;;;;;1.00;1.00;;;7.20;99.90;;;;;;5053092;28;20036;-67
2021/12/01 12:24:50;;;;;;;1.40;1.00;;;7.30;99.90;;;;;;5048431;28;20025;-67
2021/12/01 12:27:43;;;;;;;1.20;1.08;;;7.30;99.90;;;;;;5051867;28;20032;-67
2021/12/01 12:30:41;;;;;;;0.70;0.70;;;7.40;99.90;;;;;;5032286;28;20116;-68
2021/12/01 12:33:26;;;;;;;1.17;1.08;;;7.50;99.90;;;;;;5027670;28;21778;-68
2021/12/01 12:36:00;;;;;;;1.25;1.10;;;7.50;99.90;;;;;;5044879;28;20071;-67
2021/12/01 12:38:26;;;;;;;2.63;1.23;;;7.50;99.90;;;;;;5043952;28;20063;-68
2021/12/01 12:41:10;;;;;;;1.38;1.27;;;7.50;99.90;;;;;;5034251;28;20032;-67
2021/12/01 12:43:41;;;;;;;1.92;1.08;;;7.60;99.90;;;;;;5049840;28;20079;-68
2021/12/01 12:46:17;;;;;;;0.82;0.82;;;7.60;99.90;;;;;;5045976;28;20147;-68
2021/12/01 12:48:49;;;;;;;1.15;1.10;;;7.50;99.90;;;;;;5014879;28;20593;-68
2021/12/01 12:51:30;;;;;;;1.20;1.10;;;7.60;99.90;;;;;;5042695;28;20025;-68
2021/12/01 12:54:06;;;;;;;1.00;1.00;;;7.60;99.90;;;;;;5047228;28;20104;-68
2021/12/01 12:56:40;;;;;;;1.27;1.05;;;7.60;99.90;;;;;;5042774;28;20111;-68
2021/12/01 12:59:25;;;;;;;1.05;1.00;;;7.70;99.90;;;;;;5049867;28;20031;-67
2021/12/01 13:01:55;;;;;;;0.98;0.98;;;7.70;99.90;;;;;;5048417;28;20450;-67
2021/12/01 13:04:54;;;;;;;1.30;0.95;;;7.70;99.90;;;;;;5046240;28;20032;-68
2021/12/01 13:07:42;;;;;;;1.85;1.10;;;7.70;99.90;;;;;;5047404;28;20402;-68
2021/12/01 13:10:27;;;;;;;1.42;1.30;;;7.70;99.90;;;;;;5046464;28;20418;-67
2021/12/01 13:13:10;;;;;;;1.20;1.10;;;7.70;99.90;;;;;;5025048;28;20060;-67